Flight Track Log - Related Links

Times and Time Zones

All times are in EDT time to prevent confusion due to time zone crossing. See the JBU1753 flight status page for this flight to view local times or setup timezone preferences in your user account.

Time Position Orientation Groundspeed Altitude Reporting Facility
EDT Latitude Longitude Course Direction KTS MPH feet Rate Location/Type
Tue 11:41:08 AM 26.0761 -80.1311 99° East 154 177 900  Level Miami Center
Tue 11:42:27 AM 26.0633 -80.0653 102° East 217 250 2,600 1,318 Climbing Miami Center
Tue 11:43:20 AM 26.0228 -80.0436 154° Southeast 222 255 3,800 2,139 Climbing Miami Center
Tue 11:44:00 AM 26.0183 -79.6156 104° East  Level FlightAware Approximate
Tue 11:44:22 AM 25.9481 -80.0347 174° South 266 306 6,700  Level Miami Center
Tue 11:45:00 AM 25.9816 -79.4881 99° East  Level FlightAware Approximate
Tue 11:45:24 AM 25.8772 -79.9792 145° Southeast 286 329 10,300  Level Miami Center
Tue 11:46:00 AM 25.9626 -79.3549 99° East  Level FlightAware Approximate
Tue 11:46:25 AM 25.8383 -79.8992 118° Southeast 292 336 12,700  Level Miami Center
Tue 11:47:27 AM 25.7969 -79.8128 118° Southeast 328 377 14,300 1,887 Climbing Miami Center
Tue 11:48:29 AM 25.8039 -79.7036 86° East 354 407 16,600 2,032 Climbing Miami Center
Tue 11:49:31 AM 25.8153 -79.5908 84° East 364 419 18,500 1,887 Climbing Miami Center
Tue 11:50:33 AM 25.8283 -79.4756 83° East 372 428 20,500 1,306 Climbing Miami Center
Tue 11:51:35 AM 25.8403 -79.3539 84° East 398 458 21,200 1,220 Climbing Miami Center
Tue 11:52:36 AM 25.8575 -79.1994 83° East 421 484 23,000 1,561 Climbing Miami Center
Tue 11:53:38 AM 25.8206 -79.0772 109° East 424 488 24,400 1,645 Climbing Miami Center
Tue 11:54:40 AM 25.7603 -78.9622 120° Southeast 428 493 26,400 1,113 Climbing Miami Center
Tue 11:55:42 AM 25.6989 -78.8450 120° Southeast 435 501 26,700 774 Climbing Miami Center
Tue 11:56:44 AM 25.6381 -78.7219 119° Southeast 450 518 28,000 1,500 Climbing Miami Center
Tue 11:57:46 AM 25.5750 -78.6019 120° Southeast 449 517 29,800 1,366 Climbing Miami Center
Tue 11:58:47 AM 25.5142 -78.4831 120° Southeast 442 509 30,800 1,171 Climbing Miami Center
Tue 11:59:49 AM 25.4425 -78.3408 119° Southeast 441 507 32,200 1,210 Climbing Miami Center
Tue 12:00:51 PM 25.3814 -78.2233 120° Southeast 441 507 33,300 871 Climbing Miami Center
Tue 12:01:53 PM 25.3197 -78.1047 120° Southeast 442 509 34,000 726 Climbing Miami Center
Tue 12:02:55 PM 25.2572 -77.9850 120° Southeast 448 516 34,800 968 Climbing Miami Center
Tue 12:03:57 PM 25.1914 -77.8556 119° Southeast 447 514 36,000 871 Climbing Miami Center
Tue 12:04:59 PM 25.1292 -77.7406 121° Southeast 440 506 36,600 488 Climbing Miami Center
Tue 12:06:00 PM 25.0686 -77.6247 120° Southeast 437 503 37,000 195 Climbing Miami Center
Tue 12:07:02 PM 25.0072 -77.5069 120° Southeast 442 509 37,000  Level Miami Center
Tue 12:08:04 PM 24.9436 -77.3867 120° Southeast 455 524 37,000  Level Miami Center
Tue 12:09:06 PM 24.8653 -77.2386 120° Southeast 461 531 37,000  Level Miami Center
Tue 12:10:08 PM 24.7989 -77.1158 121° Southeast 462 532 37,000  Level Miami Center
Tue 12:11:10 PM 24.7292 -76.9964 123° Southeast 462 532 37,000  Level Miami Center
Tue 12:12:12 PM 24.6319 -76.9044 139° Southeast 459 528 37,000  Level Miami Center
Tue 12:13:13 PM 24.5375 -76.8111 138° Southeast 459 528 37,000  Level Miami Center
Tue 12:14:15 PM 24.4442 -76.7186 138° Southeast 455 524 37,000  Level Miami Center
Tue 12:15:17 PM 24.3506 -76.6247 138° Southeast 454 522 37,000  Level Miami Center
Tue 12:16:19 PM 24.2506 -76.4981 131° Southeast 455 524 37,000  Level Miami Center
Tue 12:17:21 PM 24.1794 -76.3825 124° Southeast 455 524 37,000  Level Miami Center
Tue 12:18:23 PM 24.1139 -76.2639 121° Southeast 454 522 37,000  Level Miami Center
Tue 12:19:25 PM 24.0444 -76.1508 124° Southeast 451 519 37,000  Level Miami Center
Tue 12:20:27 PM 23.9753 -76.0347 123° Southeast 451 519 37,000  Level Miami Center
Tue 12:21:29 PM 23.9069 -75.9150 122° Southeast 453 521 37,000  Level Miami Center
Tue 12:22:30 PM 23.8375 -75.7944 122° Southeast 458 527 37,000  Level Miami Center
Tue 12:23:32 PM 23.7753 -75.6708 119° Southeast 460 529 37,000  Level Miami Center
Tue 12:24:34 PM 23.7117 -75.5467 119° Southeast 460 529 37,000  Level Miami Center
Tue 12:25:36 PM 23.6333 -75.3994 120° Southeast 460 529 37,000  Level Miami Center
Tue 12:26:38 PM 23.5703 -75.2778 119° Southeast 460 529 37,000  Level Miami Center
Tue 12:27:40 PM 23.5067 -75.1589 120° Southeast 457 526 37,000  Level Miami Center
Tue 12:28:42 PM 23.4439 -75.0392 120° Southeast 456 525 37,000  Level Miami Center
Tue 12:29:44 PM 23.3808 -74.9203 120° Southeast 454 522 37,000  Level Miami Center
Tue 12:30:46 PM 23.3169 -74.7994 120° Southeast 455 524 37,000  Level Miami Center
Tue 12:31:48 PM 23.2531 -74.6797 120° Southeast 455 524 37,000  Level Miami Center
Tue 12:32:49 PM 23.1881 -74.5592 120° Southeast 457 526 37,000  Level Miami Center
Tue 12:33:51 PM 23.1128 -74.4153 120° Southeast 457 526 37,000  Level Miami Center
Tue 12:34:53 PM 23.0475 -74.2953 121° Southeast 457 526 37,000  Level Miami Center
Tue 12:35:55 PM 22.9839 -74.1758 120° Southeast 457 526 37,000  Level Miami Center
Tue 12:36:57 PM 22.9175 -74.0553 121° Southeast 458 527 37,000  Level Miami Center
Tue 12:57:37 PM 21.5508 -71.5675 123° Southeast 460 529 37,000  Level Miami Center
Tue 12:58:00 PM 21.7452 -71.7011 122° Southeast  Level FlightAware Approximate
Tue 12:58:39 PM 21.4847 -71.4514 121° Southeast 459 528 37,000  Level Miami Center
Tue 12:59:00 PM 21.6819 -71.5943 123° Southeast  Level FlightAware Approximate
Tue 12:59:41 PM 21.4178 -71.3339 121° Southeast 459 528 37,000  Level Miami Center
Tue 01:00:00 PM 21.6185 -71.4876 123° Southeast  Level FlightAware Approximate
Tue 01:00:43 PM 21.3442 -71.2092 122° Southeast 466 536 37,000  Level Miami Center
Tue 01:01:00 PM 21.5550 -71.3810 123° Southeast  Level FlightAware Approximate
Tue 01:01:45 PM 21.2678 -71.0708 121° Southeast 478 550 37,000  Level Miami Center
Tue 01:02:00 PM 21.4915 -71.2745 123° Southeast  Level FlightAware Approximate
Tue 01:02:47 PM 21.2022 -70.9511 120° Southeast 478 550 37,000  Level Miami Center
Tue 01:03:50 PM 21.1344 -70.8303 121° Southeast 476 548 37,000  Level Miami Center
Tue 01:04:52 PM 21.0517 -70.6850 121° Southeast 476 548 37,000  Level Miami Center
Tue 01:05:54 PM 20.9833 -70.5658 122° Southeast 476 548 37,000  Level Miami Center
Tue 01:06:56 PM 20.9150 -70.4461 121° Southeast 475 547 37,000  Level Miami Center
Tue 01:07:58 PM 20.8464 -70.3253 121° Southeast 475 547 37,000  Level Miami Center
Tue 01:09:00 PM 20.7772 -70.2036 121° Southeast 475 547 37,000  Level Miami Center
Tue 01:10:02 PM 20.7061 -70.0825 122° Southeast 476 548 37,000  Level Miami Center
Tue 01:11:04 PM 20.6214 -69.9347 121° Southeast 481 554 37,000  Level Miami Center
Tue 01:12:06 PM 20.5511 -69.8119 121° Southeast 481 554 37,000  Level Miami Center
Tue 01:13:08 PM 20.4792 -69.6889 122° Southeast 484 557 37,000  Level Miami Center
Tue 01:14:10 PM 20.4100 -69.5658 121° Southeast 484 557 37,000  Level Miami Center
Tue 01:15:12 PM 20.3383 -69.4442 122° Southeast 484 557 37,000  Level Miami Center
Tue 01:16:15 PM 20.2678 -69.3231 122° Southeast 483 556 37,000  Level Miami Center
Tue 01:17:17 PM 20.1814 -69.1772 122° Southeast 483 556 37,000  Level Miami Center
Tue 01:18:19 PM 20.1119 -69.0575 122° Southeast 481 554 37,000  Level Miami Center
Tue 01:19:21 PM 20.0419 -68.9369 122° Southeast 480 552 37,000  Level Miami Center
Tue 01:20:23 PM 19.9703 -68.8169 122° Southeast 480 552 37,000  Level Miami Center
Tue 01:21:25 PM 19.9000 -68.6975 122° Southeast 480 552 37,000 -387 Level Miami Center
Tue 01:22:27 PM 19.8317 -68.5789 121° Southeast 477 549 36,200 -871 Descending Miami Center
Tue 01:23:29 PM 19.7636 -68.4667 123° Southeast 464 534 35,200 -1,158 Descending Miami Center
Tue 01:24:21 PM 19.6833 -68.3667 130° Southeast 450 518 34,000 -750 Descending San Juan Center
Tue 01:25:21 PM 19.6167 -68.2500 121° Southeast 430 495 33,800 -600 Descending San Juan Center
Tue 01:26:21 PM 19.5500 -68.1333 121° Southeast 450 518 32,800 -1,100 Descending San Juan Center
Tue 01:27:21 PM 19.5000 -68.0333 118° Southeast 430 495 31,600 -1,050 Descending San Juan Center
Tue 01:28:21 PM 19.4333 -67.9167 121° Southeast 430 495 30,700 -950 Descending San Juan Center
Tue 01:29:21 PM 19.3667 -67.8167 125° Southeast 420 483 29,700 -1,041 Descending San Juan Center
Tue 01:30:22 PM 19.3000 -67.7167 125° Southeast 410 472 28,600 -992 Descending San Juan Center
Tue 01:31:22 PM 19.2333 -67.6167 125° Southeast 450 518 27,700 -1,050 Descending San Juan Center
Tue 01:32:22 PM 19.1833 -67.4833 112° Southeast 460 529 26,500 -2,250 Descending San Juan Center
Tue 01:33:22 PM 19.1333 -67.3667 114° Southeast 450 518 23,200 -3,000 Descending San Juan Center
Tue 01:34:22 PM 19.0667 -67.2500 121° Southeast 430 495 20,500 -2,450 Descending San Juan Center
Tue 01:35:22 PM 19.0167 -67.1500 118° Southeast 400 460 18,300 -2,132 Descending San Juan Center
Tue 01:36:23 PM 18.9667 -67.0333 114° Southeast 390 449 16,200 -2,000 Descending San Juan Center
Tue 01:37:22 PM 18.9167 -66.9333 118° Southeast 360 414 14,300 -1,900 Descending San Juan Center
Tue 01:38:23 PM 18.8667 -66.8500 122° Southeast 350 403 12,400 -1,636 Descending San Juan Center
Tue 01:39:23 PM 18.8333 -66.7667 113° Southeast 340 391 11,000 -1,050 Descending San Juan Center
Tue 01:40:23 PM 18.7833 -66.6833 122° Southeast 300 345 10,300 -900 Descending San Juan Center
Tue 01:41:23 PM 18.7500 -66.6000 113° Southeast 300 345 9,200 -1,000 Descending San Juan Center
Tue 01:42:23 PM 18.7000 -66.5333 128° Southeast 290 334 8,300 -950 Descending San Juan Center
Tue 01:43:23 PM 18.6500 -66.4667 128° Southeast 280 322 7,300 -950 Descending San Juan Center
Tue 01:44:23 PM 18.6000 -66.4167 137° Southeast 280 322 6,400 -942 Descending San Juan Center
Tue 01:45:24 PM 18.5500 -66.3500 128° Southeast 270 311 5,400 -942 Descending San Juan Center
Tue 01:46:24 PM 18.5000 -66.2833 128° Southeast 260 299 4,500 -900 Descending San Juan Center
Tue 01:47:24 PM 18.4500 -66.2333 137° Southeast 240 276 3,600 -800 Descending San Juan Center
Tue 01:48:24 PM 18.4333 -66.1667 105° East 230 265 2,900 -850 Descending San Juan Center
Tue 01:49:24 PM 18.4333 -66.1167 90° East 190 219 1,900 -850 Descending San Juan Center
Tue 01:50:24 PM 18.4333 -66.0667 90° East 150 173 1,200 -700 Descending San Juan Center
Tue 01:51:24 PM 18.4333 -66.0333 90° East 120 138 500 -700 Descending San Juan Center

Login

Don't have an account? Register now (free) for customized features, flight alerts, and more!